Hjaltland — VSTY8 — position and weather

sailwx.info

Track history (hours):
 
Tides and Currents Weather Stations Pressure Air Temp Water Temp Dewpoint Dewpoint Depression Visibility Wind Speed Wind Dir Waves Ship Positions

Hjaltland

Operator: NorthLink Orkey & Shetland Ferries Ltd

Last reported at 2017-Mar-27 20:24 UTC. Time now 2017-Mar-28 08:06 UTC.
Position N 57°44' W 001°39'.

Type: Ship (hazmat cat A). MMSI: 235450000.

Date/timePositionNaut miles runAvg speedWind from/ knotsBaromVisibWave heightAir tempDewpointWater temp
2017-Mar-27 20:24N 57°44' W 001°39'1315.0
2017-Mar-27 19:33N 57°32' W 001°41'1715.4
2017-Mar-27 18:27N 57°16' W 001°54'1010.9
2017-Mar-27 17:33N 57°09' W 002°05'0 0.0
2017-Mar-27 16:31N 57°09' W 002°05'0 0.0
2017-Mar-27 15:31N 57°09' W 002°05'0 0.0
2017-Mar-27 14:31N 57°09' W 002°05'0 0.0
2017-Mar-27 13:31N 57°09' W 002°05'0 0.0
2017-Mar-27 12:31N 57°09' W 002°05'0 0.0
2017-Mar-27 11:31N 57°09' W 002°05'0 0.0
2017-Mar-27 10:31N 57°09' W 002°05'0 0.0
2017-Mar-27 09:31N 57°09' W 002°05'0 0.0
2017-Mar-27 08:31N 57°09' W 002°05'0 0.0
2017-Mar-27 07:31N 57°09' W 002°05'0 0.0
2017-Mar-27 06:31N 57°09' W 002°05'1 0.6
2017-Mar-27 05:34N 57°08' W 002°04'1312.7
2017-Mar-27 04:33N 57°19' W 001°50'1414.4
2017-Mar-27 03:34N 57°31' W 001°37'95 3.5
2017-Mar-26 00:33N 59°01' W 002°38'7 3.3
2017-Mar-25 22:33N 59°01' W 002°51'7522.1
2017-Mar-25 19:10N 57°53' W 001°49'1524.1
2017-Mar-25 18:33N 57°39' W 001°40'2424.2
2017-Mar-25 17:34N 57°16' W 001°55'9 9.3
2017-Mar-25 16:33N 57°09' W 002°05'0 0.0
2017-Mar-25 15:31N 57°09' W 002°05'0 0.0
2017-Mar-25 14:31N 57°09' W 002°05'0 0.0
2017-Mar-25 13:31N 57°09' W 002°05'0 0.0
2017-Mar-25 12:31N 57°09' W 002°05'0 0.0
2017-Mar-25 11:31N 57°09' W 002°05'0 0.0
2017-Mar-25 10:31N 57°09' W 002°05'0 0.0
2017-Mar-25 09:31N 57°09' W 002°05'0 0.0
2017-Mar-25 08:31N 57°09' W 002°05'0 0.0
2017-Mar-25 07:31N 57°09' W 002°05'0 0.4
2017-Mar-25 06:34N 57°09' W 002°05'1312.7
2017-Mar-25 05:32N 57°19' W 001°49'1919.7
2017-Mar-25 04:33N 57°37' W 001°41'8922.2
2017-Mar-25 00:33N 58°60' W 002°43'4 1.9
2017-Mar-24 22:33N 59°01' W 002°50'12 0.6
2017-Mar-24 01:28N 59°04' W 002°28'1212.8
2017-Mar-24 00:33N 59°01' W 002°50'2 0.8
2017-Mar-23 22:34N 59°00' W 002°47'7322.4
2017-Mar-23 19:18N 57°53' W 001°50'1722.6
2017-Mar-23 18:33N 57°38' W 001°38'2121.2
2017-Mar-23 17:33N 57°18' W 001°50'1212.3
2017-Mar-23 16:34N 57°09' W 002°05'0 0.0
2017-Mar-23 15:31N 57°09' W 002°05'0 0.0
2017-Mar-23 14:31N 57°09' W 002°05'0 0.0
2017-Mar-23 13:31N 57°09' W 002°05'0 0.0
2017-Mar-23 12:31N 57°09' W 002°05'0 0.0
2017-Mar-23 11:31N 57°09' W 002°05'0 0.0
2017-Mar-23 10:31N 57°09' W 002°05'0 0.0
2017-Mar-23 09:32N 57°09' W 002°05'0 0.0
2017-Mar-23 08:33N 57°09' W 002°05'0 0.0
2017-Mar-23 07:33N 57°09' W 002°05'0 0.1
2017-Mar-23 06:33N 57°09' W 002°05'8 8.0
2017-Mar-23 05:33N 57°14' W 001°54'2019.8
2017-Mar-23 04:33N 57°32' W 001°38'9122.6
2017-Mar-23 00:32N 58°57' W 002°38'7 3.5
2017-Mar-22 22:33N 59°01' W 002°50'84 3.5
2017-Mar-21 22:12N 57°46' W 001°36'812.6
2017-Mar-21 21:33N 57°38' W 001°37'1212.3
2017-Mar-21 20:33N 57°26' W 001°39'1514.2
2017-Mar-21 19:32N 57°14' W 001°55'8 7.6
2017-Mar-21 18:32N 57°09' W 002°05'0 0.0
2017-Mar-21 17:32N 57°09' W 002°05'0 0.0
2017-Mar-21 16:32N 57°09' W 002°05'0 0.0
2017-Mar-21 15:32N 57°09' W 002°05'0 0.0
2017-Mar-21 14:32N 57°09' W 002°05'0 0.0
2017-Mar-21 13:32N 57°09' W 002°05'0 0.0
2017-Mar-21 12:32N 57°09' W 002°05'0 0.0
2017-Mar-21 11:32N 57°09' W 002°05'0 0.0
2017-Mar-21 10:32N 57°09' W 002°05'0 0.0
2017-Mar-21 09:32N 57°09' W 002°05'0 0.0
2017-Mar-21 08:32N 57°09' W 002°05'0 0.0
2017-Mar-21 07:29N 57°09' W 002°05'0 0.0
2017-Mar-21 06:33N 57°09' W 002°05'9 8.6
2017-Mar-21 05:33N 57°15' W 001°54'1717.1
2017-Mar-21 04:33N 57°29' W 001°37'98 3.6
2017-Mar-20 01:22N 59°04' W 002°28'1012.1
2017-Mar-20 00:33N 59°00' W 002°46'7 5.3
2017-Mar-19 23:20N 58°60' W 002°58'1415.7
2017-Mar-19 22:26N 58°54' W 002°34'6723.2
2017-Mar-19 19:33N 57°52' W 001°49'4220.9
2017-Mar-19 17:34N 57°10' W 001°60'3 3.2
2017-Mar-19 16:31N 57°09' W 002°05'0 0.0
2017-Mar-19 15:31N 57°09' W 002°05'0 0.0
2017-Mar-19 14:31N 57°09' W 002°05'0 0.0
2017-Mar-19 13:31N 57°09' W 002°05'0 0.0
2017-Mar-19 12:31N 57°09' W 002°05'0 0.0
2017-Mar-19 11:31N 57°09' W 002°05'0 0.0
2017-Mar-19 10:31N 57°09' W 002°05'0 0.0
2017-Mar-19 09:31N 57°09' W 002°05'0 0.0
2017-Mar-19 08:31N 57°09' W 002°05'0 0.0
2017-Mar-19 07:31N 57°09' W 002°05'0 0.0
2017-Mar-19 06:31N 57°09' W 002°05'0 0.0
2017-Mar-19 05:31N 57°09' W 002°05'0 0.0
2017-Mar-19 04:31N 57°09' W 002°05'0 0.0
2017-Mar-19 03:31N 57°09' W 002°05'0 0.0
2017-Mar-19 02:31N 57°09' W 002°05'0 0.0
2017-Mar-19 01:31N 57°09' W 002°05'0 0.0
2017-Mar-19 00:31N 57°09' W 002°05'0 0.0
2017-Mar-18 23:31N 57°09' W 002°05'0 0.0
2017-Mar-18 22:31N 57°09' W 002°05'0 0.0
2017-Mar-18 21:31N 57°09' W 002°05'0 0.0
2017-Mar-18 20:31N 57°09' W 002°05'0 0.0
2017-Mar-18 19:31N 57°09' W 002°05'0 0.0
2017-Mar-18 18:31N 57°09' W 002°05'0 0.0
2017-Mar-18 17:31N 57°09' W 002°05'0 0.0
2017-Mar-18 16:31N 57°09' W 002°05'0 0.0
2017-Mar-18 15:31N 57°09' W 002°05'0 0.0
2017-Mar-18 14:31N 57°09' W 002°05'0 0.0
2017-Mar-18 13:31N 57°09' W 002°05'0 0.0
2017-Mar-18 12:31N 57°09' W 002°05'0 0.0
2017-Mar-18 11:31N 57°09' W 002°05'0 0.0
2017-Mar-18 10:31N 57°09' W 002°05'0 0.0
2017-Mar-18 09:31N 57°09' W 002°05'0 0.0
2017-Mar-18 08:31N 57°09' W 002°05'0 0.0
2017-Mar-18 07:31N 57°09' W 002°05'0 0.0
2017-Mar-18 06:33N 57°09' W 002°05'8 8.3
2017-Mar-18 05:34N 57°14' W 001°53'2318.9
2017-Mar-18 04:21N 57°36' W 001°39'8321.8
2017-Mar-18 00:31N 58°54' W 002°35'14 7.0
2017-Mar-17 22:33N 59°01' W 002°58'  
Track history (hours):
 
Tides and Currents Weather Stations Pressure Air Temp Water Temp Dewpoint Dewpoint Depression Visibility Wind Speed Wind Dir Waves Ship Positions

Hjaltland

Operator: NorthLink Orkey & Shetland Ferries Ltd

Last reported at 2017-Mar-27 20:24 UTC. Time now 2017-Mar-28 08:06 UTC.
Position N 57°44' W 001°39'.

Type: Ship (hazmat cat A). MMSI: 235450000.

Date/timePositionNaut miles runAvg speedWind from/ knotsBaromVisibWave heightAir tempDewpointWater temp
2017-Mar-27 20:24N 57°44' W 001°39'1315.0
2017-Mar-27 19:33N 57°32' W 001°41'1715.4
2017-Mar-27 18:27N 57°16' W 001°54'1010.9
2017-Mar-27 17:33N 57°09' W 002°05'0 0.0
2017-Mar-27 16:31N 57°09' W 002°05'0 0.0
2017-Mar-27 15:31N 57°09' W 002°05'0 0.0
2017-Mar-27 14:31N 57°09' W 002°05'0 0.0
2017-Mar-27 13:31N 57°09' W 002°05'0 0.0
2017-Mar-27 12:31N 57°09' W 002°05'0 0.0
2017-Mar-27 11:31N 57°09' W 002°05'0 0.0
2017-Mar-27 10:31N 57°09' W 002°05'0 0.0
2017-Mar-27 09:31N 57°09' W 002°05'0 0.0
2017-Mar-27 08:31N 57°09' W 002°05'0 0.0
2017-Mar-27 07:31N 57°09' W 002°05'0 0.0
2017-Mar-27 06:31N 57°09' W 002°05'1 0.6
2017-Mar-27 05:34N 57°08' W 002°04'1312.7
2017-Mar-27 04:33N 57°19' W 001°50'1414.4
2017-Mar-27 03:34N 57°31' W 001°37'95 3.5
2017-Mar-26 00:33N 59°01' W 002°38'7 3.3
2017-Mar-25 22:33N 59°01' W 002°51'7522.1
2017-Mar-25 19:10N 57°53' W 001°49'1524.1
2017-Mar-25 18:33N 57°39' W 001°40'2424.2
2017-Mar-25 17:34N 57°16' W 001°55'9 9.3
2017-Mar-25 16:33N 57°09' W 002°05'0 0.0
2017-Mar-25 15:31N 57°09' W 002°05'0 0.0
2017-Mar-25 14:31N 57°09' W 002°05'0 0.0
2017-Mar-25 13:31N 57°09' W 002°05'0 0.0
2017-Mar-25 12:31N 57°09' W 002°05'0 0.0
2017-Mar-25 11:31N 57°09' W 002°05'0 0.0
2017-Mar-25 10:31N 57°09' W 002°05'0 0.0
2017-Mar-25 09:31N 57°09' W 002°05'0 0.0
2017-Mar-25 08:31N 57°09' W 002°05'0 0.0
2017-Mar-25 07:31N 57°09' W 002°05'0 0.4
2017-Mar-25 06:34N 57°09' W 002°05'1312.7
2017-Mar-25 05:32N 57°19' W 001°49'1919.7
2017-Mar-25 04:33N 57°37' W 001°41'8922.2
2017-Mar-25 00:33N 58°60' W 002°43'4 1.9
2017-Mar-24 22:33N 59°01' W 002°50'12 0.6
2017-Mar-24 01:28N 59°04' W 002°28'1212.8
2017-Mar-24 00:33N 59°01' W 002°50'2 0.8
2017-Mar-23 22:34N 59°00' W 002°47'7322.4
2017-Mar-23 19:18N 57°53' W 001°50'1722.6
2017-Mar-23 18:33N 57°38' W 001°38'2121.2
2017-Mar-23 17:33N 57°18' W 001°50'1212.3
2017-Mar-23 16:34N 57°09' W 002°05'0 0.0
2017-Mar-23 15:31N 57°09' W 002°05'0 0.0
2017-Mar-23 14:31N 57°09' W 002°05'0 0.0
2017-Mar-23 13:31N 57°09' W 002°05'0 0.0
2017-Mar-23 12:31N 57°09' W 002°05'0 0.0
2017-Mar-23 11:31N 57°09' W 002°05'0 0.0
2017-Mar-23 10:31N 57°09' W 002°05'0 0.0
2017-Mar-23 09:32N 57°09' W 002°05'0 0.0
2017-Mar-23 08:33N 57°09' W 002°05'0 0.0
2017-Mar-23 07:33N 57°09' W 002°05'0 0.1
2017-Mar-23 06:33N 57°09' W 002°05'8 8.0
2017-Mar-23 05:33N 57°14' W 001°54'2019.8
2017-Mar-23 04:33N 57°32' W 001°38'9122.6
2017-Mar-23 00:32N 58°57' W 002°38'7 3.5
2017-Mar-22 22:33N 59°01' W 002°50'84 3.5
2017-Mar-21 22:12N 57°46' W 001°36'812.6
2017-Mar-21 21:33N 57°38' W 001°37'1212.3
2017-Mar-21 20:33N 57°26' W 001°39'1514.2
2017-Mar-21 19:32N 57°14' W 001°55'8 7.6
2017-Mar-21 18:32N 57°09' W 002°05'0 0.0
2017-Mar-21 17:32N 57°09' W 002°05'0 0.0
2017-Mar-21 16:32N 57°09' W 002°05'0 0.0
2017-Mar-21 15:32N 57°09' W 002°05'0 0.0
2017-Mar-21 14:32N 57°09' W 002°05'0 0.0
2017-Mar-21 13:32N 57°09' W 002°05'0 0.0
2017-Mar-21 12:32N 57°09' W 002°05'0 0.0
2017-Mar-21 11:32N 57°09' W 002°05'0 0.0
2017-Mar-21 10:32N 57°09' W 002°05'0 0.0
2017-Mar-21 09:32N 57°09' W 002°05'0 0.0
2017-Mar-21 08:32N 57°09' W 002°05'0 0.0
2017-Mar-21 07:29N 57°09' W 002°05'0 0.0
2017-Mar-21 06:33N 57°09' W 002°05'9 8.6
2017-Mar-21 05:33N 57°15' W 001°54'1717.1
2017-Mar-21 04:33N 57°29' W 001°37'98 3.6
2017-Mar-20 01:22N 59°04' W 002°28'1012.1
2017-Mar-20 00:33N 59°00' W 002°46'7 5.3
2017-Mar-19 23:20N 58°60' W 002°58'1415.7
2017-Mar-19 22:26N 58°54' W 002°34'6723.2
2017-Mar-19 19:33N 57°52' W 001°49'4220.9
2017-Mar-19 17:34N 57°10' W 001°60'3 3.2
2017-Mar-19 16:31N 57°09' W 002°05'0 0.0
2017-Mar-19 15:31N 57°09' W 002°05'0 0.0
2017-Mar-19 14:31N 57°09' W 002°05'0 0.0
2017-Mar-19 13:31N 57°09' W 002°05'0 0.0
2017-Mar-19 12:31N 57°09' W 002°05'0 0.0
2017-Mar-19 11:31N 57°09' W 002°05'0 0.0
2017-Mar-19 10:31N 57°09' W 002°05'0 0.0
2017-Mar-19 09:31N 57°09' W 002°05'0 0.0
2017-Mar-19 08:31N 57°09' W 002°05'0 0.0
2017-Mar-19 07:31N 57°09' W 002°05'0 0.0
2017-Mar-19 06:31N 57°09' W 002°05'0 0.0
2017-Mar-19 05:31N 57°09' W 002°05'0 0.0
2017-Mar-19 04:31N 57°09' W 002°05'0 0.0
2017-Mar-19 03:31N 57°09' W 002°05'0 0.0
2017-Mar-19 02:31N 57°09' W 002°05'0 0.0
2017-Mar-19 01:31N 57°09' W 002°05'0 0.0
2017-Mar-19 00:31N 57°09' W 002°05'0 0.0
2017-Mar-18 23:31N 57°09' W 002°05'0 0.0
2017-Mar-18 22:31N 57°09' W 002°05'0 0.0
2017-Mar-18 21:31N 57°09' W 002°05'0 0.0
2017-Mar-18 20:31N 57°09' W 002°05'0 0.0
2017-Mar-18 19:31N 57°09' W 002°05'0 0.0
2017-Mar-18 18:31N 57°09' W 002°05'0 0.0
2017-Mar-18 17:31N 57°09' W 002°05'0 0.0
2017-Mar-18 16:31N 57°09' W 002°05'0 0.0
2017-Mar-18 15:31N 57°09' W 002°05'0 0.0
2017-Mar-18 14:31N 57°09' W 002°05'0 0.0
2017-Mar-18 13:31N 57°09' W 002°05'0 0.0
2017-Mar-18 12:31N 57°09' W 002°05'0 0.0
2017-Mar-18 11:31N 57°09' W 002°05'0 0.0
2017-Mar-18 10:31N 57°09' W 002°05'0 0.0
2017-Mar-18 09:31N 57°09' W 002°05'0 0.0
2017-Mar-18 08:31N 57°09' W 002°05'0 0.0
2017-Mar-18 07:31N 57°09' W 002°05'0 0.0
2017-Mar-18 06:33N 57°09' W 002°05'8 8.3
2017-Mar-18 05:34N 57°14' W 001°53'2318.9
2017-Mar-18 04:21N 57°36' W 001°39'8321.8
2017-Mar-18 00:31N 58°54' W 002°35'14 7.0
2017-Mar-17 22:33N 59°01' W 002°58'  

Dump ship's entire track history